TimeCST,TemperatureF,Dew PointF,Humidity,Sea Level PressureIn,VisibilityMPH,Wind Direction,Wind SpeedMPH,Gust SpeedMPH,PrecipitationIn,Events,Conditions,WindDirDegrees,DateUTC
12:15 AM,15.8,10.2,79,30.55,10.0,NW,9.2,-,N/A,,Mostly Cloudy,310,2013-12-24 06:15:00
12:35 AM,15.8,9.9,77,30.55,10.0,WNW,9.2,-,N/A,Snow,Light Snow,290,2013-12-24 06:35:00
12:55 AM,15.8,10.0,78,30.55,10.0,WNW,11.5,17.3,N/A,Snow,Light Snow,300,2013-12-24 06:55:00
1:15 AM,15.6,9.5,77,30.55,10.0,WNW,10.4,-,N/A,Snow,Light Snow,290,2013-12-24 07:15:00
1:35 AM,15.1,8.8,76,30.56,10.0,WNW,9.2,17.3,N/A,,Overcast,290,2013-12-24 07:35:00
1:55 AM,14.7,8.4,76,30.56,10.0,West,11.5,-,N/A,,Overcast,280,2013-12-24 07:55:00
2:15 AM,14.5,8.2,76,30.56,10.0,WNW,10.4,-,N/A,,Overcast,290,2013-12-24 08:15:00
2:35 AM,14.0,7.2,74,30.57,10.0,West,13.8,-,N/A,,Mostly Cloudy,280,2013-12-24 08:35:00
2:55 AM,13.1,6.4,75,30.57,10.0,WNW,11.5,-,N/A,,Scattered Clouds,300,2013-12-24 08:55:00
3:15 AM,12.9,6.4,75,30.57,10.0,WNW,10.4,-,N/A,,Clear,300,2013-12-24 09:15:00
3:35 AM,12.6,5.0,72,30.57,10.0,WNW,13.8,-,N/A,,Clear,300,2013-12-24 09:35:00
3:55 AM,12.2,5.7,75,30.57,10.0,WNW,10.4,-,N/A,,Clear,290,2013-12-24 09:55:00
4:15 AM,12.2,5.9,76,30.57,10.0,WNW,6.9,-,N/A,,Clear,300,2013-12-24 10:15:00
4:35 AM,11.8,5.2,75,30.58,10.0,WNW,8.1,-,N/A,,Clear,290,2013-12-24 10:35:00
4:55 AM,11.8,5.5,76,30.58,10.0,WNW,9.2,-,N/A,,Clear,290,2013-12-24 10:55:00
5:15 AM,11.5,5.4,76,30.58,10.0,WNW,6.9,-,N/A,,Clear,300,2013-12-24 11:15:00
5:35 AM,11.3,5.4,77,30.58,10.0,NW,5.8,-,N/A,,Clear,310,2013-12-24 11:35:00
5:55 AM,11.1,5.0,76,30.58,10.0,WNW,5.8,-,N/A,,Clear,300,2013-12-24 11:55:00
6:15 AM,10.8,5.2,78,30.59,10.0,NW,5.8,-,N/A,,Clear,310,2013-12-24 12:15:00
6:35 AM,10.8,4.8,77,30.59,10.0,NW,5.8,-,N/A,,Clear,310,2013-12-24 12:35:00
6:55 AM,10.4,4.1,76,30.59,10.0,NW,5.8,-,N/A,,Clear,310,2013-12-24 12:55:00
7:15 AM,10.8,2.7,70,30.60,10.0,NW,6.9,-,N/A,,Clear,320,2013-12-24 13:15:00
7:35 AM,10.4,3.7,74,30.61,10.0,West,5.8,-,N/A,,Clear,280,2013-12-24 13:35:00
7:55 AM,10.9,4.5,75,30.61,10.0,WNW,4.6,-,N/A,,Clear,300,2013-12-24 13:55:00
8:15 AM,11.1,4.1,73,30.62,10.0,West,5.8,-,N/A,,Clear,270,2013-12-24 14:15:00
8:35 AM,12.2,4.5,71,30.63,10.0,West,5.8,-,N/A,,Clear,260,2013-12-24 14:35:00
8:55 AM,12.7,3.9,68,30.63,10.0,WNW,8.1,-,N/A,,Clear,290,2013-12-24 14:55:00
9:15 AM,12.7,2.5,64,30.62,10.0,Calm,Calm,-,N/A,,Clear,0,2013-12-24 15:15:00
9:35 AM,13.5,2.3,61,30.63,10.0,WNW,5.8,-,N/A,,Clear,300,2013-12-24 15:35:00
9:55 AM,13.8,3.0,62,30.63,10.0,Calm,Calm,-,N/A,,Clear,0,2013-12-24 15:55:00
10:15 AM,14.7,3.6,61,30.63,10.0,WNW,4.6,-,N/A,,Clear,300,2013-12-24 16:15:00
10:35 AM,15.4,2.7,57,30.62,10.0,NNW,3.5,-,N/A,,Clear,340,2013-12-24 16:35:00
10:55 AM,16.0,1.8,54,30.62,10.0,NW,4.6,-,N/A,,Clear,310,2013-12-24 16:55:00
11:15 AM,16.7,2.5,54,30.61,10.0,NNE,3.5,-,N/A,,Clear,20,2013-12-24 17:15:00
11:35 AM,17.6,0.9,48,30.60,10.0,Calm,Calm,-,N/A,,Clear,0,2013-12-24 17:35:00
11:55 AM,18.0,0.7,47,30.59,10.0,Calm,Calm,-,N/A,,Clear,0,2013-12-24 17:55:00
12:15 PM,18.7,2.1,49,30.59,10.0,Calm,Calm,-,N/A,,Clear,0,2013-12-24 18:15:00
12:35 PM,19.6,2.5,48,30.58,10.0,South,3.5,-,N/A,,Clear,180,2013-12-24 18:35:00
12:55 PM,20.5,1.6,44,30.55,10.0,Calm,Calm,-,N/A,,Clear,0,2013-12-24 18:55:00
1:15 PM,20.8,1.8,44,30.55,10.0,Calm,Calm,-,N/A,,Clear,0,2013-12-24 19:15:00
1:35 PM,21.6,3.2,45,30.55,10.0,SW,3.5,-,N/A,,Clear,230,2013-12-24 19:35:00
1:55 PM,22.1,2.5,43,30.54,10.0,South,3.5,-,N/A,,Clear,190,2013-12-24 19:55:00
2:15 PM,22.8,3.0,43,30.53,10.0,SSW,4.6,-,N/A,,Clear,200,2013-12-24 20:15:00
2:35 PM,23.0,3.2,43,30.53,10.0,SE,4.6,-,N/A,,Clear,140,2013-12-24 20:35:00
2:55 PM,23.4,3.2,42,30.52,10.0,SE,3.5,-,N/A,,Clear,130,2013-12-24 20:55:00
3:15 PM,23.9,5.9,46,30.51,10.0,SE,3.5,-,N/A,,Clear,140,2013-12-24 21:15:00
3:35 PM,23.7,5.2,45,30.51,10.0,ESE,4.6,-,N/A,,Clear,120,2013-12-24 21:35:00
3:55 PM,24.4,6.6,47,30.51,10.0,SE,4.6,-,N/A,,Clear,140,2013-12-24 21:55:00
4:15 PM,23.9,6.1,47,30.51,10.0,South,4.6,-,N/A,,Clear,170,2013-12-24 22:15:00
4:35 PM,23.7,7.5,50,30.50,10.0,SE,5.8,-,N/A,,Clear,140,2013-12-24 22:35:00
4:55 PM,23.0,8.4,54,30.49,10.0,ESE,4.6,-,N/A,,Scattered Clouds,120,2013-12-24 22:55:00
5:15 PM,22.8,8.6,55,30.49,10.0,SE,6.9,-,N/A,,Scattered Clouds,140,2013-12-24 23:15:00
5:35 PM,22.1,9.3,58,30.49,10.0,SE,5.8,-,N/A,,Scattered Clouds,130,2013-12-24 23:35:00
5:55 PM,21.2,10.2,63,30.49,10.0,SE,6.9,-,N/A,,Scattered Clouds,130,2013-12-24 23:55:00
6:15 PM,21.2,10.6,64,30.49,10.0,SSE,6.9,-,N/A,,Clear,150,2013-12-25 00:15:00
6:35 PM,21.2,10.4,63,30.49,10.0,SE,5.8,-,N/A,,Scattered Clouds,140,2013-12-25 00:35:00
6:55 PM,21.2,10.4,63,30.48,10.0,SE,5.8,-,N/A,,Overcast,140,2013-12-25 00:55:00
7:15 PM,21.4,10.9,64,30.47,10.0,SE,6.9,-,N/A,,Overcast,130,2013-12-25 01:15:00
7:35 PM,21.6,11.7,66,30.46,10.0,ESE,5.8,-,N/A,,Overcast,120,2013-12-25 01:35:00
7:55 PM,21.7,12.0,66,30.46,10.0,SE,8.1,-,N/A,,Mostly Cloudy,140,2013-12-25 01:55:00
8:15 PM,21.7,12.2,67,30.45,10.0,SE,6.9,-,N/A,,Scattered Clouds,130,2013-12-25 02:15:00
8:35 PM,21.6,11.8,66,30.44,10.0,SE,8.1,-,N/A,,Clear,140,2013-12-25 02:35:00
8:55 PM,21.7,12.6,68,30.43,10.0,SE,8.1,-,N/A,,Clear,140,2013-12-25 02:55:00
9:15 PM,21.9,13.1,69,30.43,10.0,SE,8.1,-,N/A,,Clear,140,2013-12-25 03:15:00
9:35 PM,22.1,13.6,70,30.42,10.0,SSE,8.1,-,N/A,,Clear,150,2013-12-25 03:35:00
9:55 PM,22.3,13.8,70,30.41,10.0,SE,9.2,-,N/A,,Clear,140,2013-12-25 03:55:00
10:15 PM,22.5,14.0,70,30.41,10.0,SSE,6.9,-,N/A,,Clear,150,2013-12-25 04:15:00
10:35 PM,22.5,14.0,70,30.41,10.0,SE,6.9,-,N/A,,Clear,140,2013-12-25 04:35:00
10:55 PM,22.6,14.0,69,30.41,10.0,SSE,8.1,-,N/A,,Clear,150,2013-12-25 04:55:00
11:15 PM,22.5,14.0,70,30.40,10.0,SSE,8.1,-,N/A,,Clear,160,2013-12-25 05:15:00
11:35 PM,22.3,14.4,72,30.40,10.0,SSE,4.6,-,N/A,,Clear,150,2013-12-25 05:35:00
11:55 PM,22.3,14.5,72,30.40,10.0,SSE,8.1,-,N/A,,Clear,150,2013-12-25 05:55:00